Time;durP1;ratioP1;P1;durP2;ratioP2;P2;SDS_P1;SDS_P2;PMS_P1;PMS_P2;Temp;Humidity;BMP_temperature;BMP_pressure;BME280_temperature;BME280_humidity;BME280_pressure;Samples;Min_cycle;Max_cycle;Signal;HPM_P1;HPM_P2
2022/03/30 00:01:09;;;;;;;15.97;6.30;;;;;;;12.59;48.63;98312.63;5022650;28;20209;-71
2022/03/30 00:03:34;;;;;;;18.58;8.27;;;;;;;12.57;48.55;98306.66;5022669;28;20579;-72
2022/03/30 00:06:00;;;;;;;16.53;7.57;;;;;;;12.57;48.37;98306.66;5022326;28;20674;-74
2022/03/30 00:08:26;;;;;;;20.80;6.50;;;;;;;12.59;48.13;98309.16;5022249;28;20241;-72
2022/03/30 00:10:52;;;;;;;18.97;8.37;;;;;;;12.61;48.87;98307.22;5021168;28;20296;-74
2022/03/30 00:13:17;;;;;;;15.73;8.73;;;;;;;12.54;48.92;98303.50;5020902;28;20570;-73
2022/03/30 00:15:44;;;;;;;32.47;8.70;;;;;;;12.47;49.36;98303.19;5022413;28;20224;-74
2022/03/30 00:18:09;;;;;;;19.45;7.85;;;;;;;12.45;49.61;98306.94;5021396;28;20671;-72
2022/03/30 00:20:35;;;;;;;16.23;6.57;;;;;;;12.43;49.74;98303.66;5021862;28;20209;-72
2022/03/30 00:23:01;;;;;;;18.23;7.07;;;;;;;12.43;49.60;98298.38;5020665;28;20410;-72
2022/03/30 00:25:26;;;;;;;14.60;7.00;;;;;;;12.45;49.64;98299.06;5021189;28;20230;-74
2022/03/30 00:27:52;;;;;;;12.73;6.27;;;;;;;12.44;49.60;98300.03;5021306;28;20303;-73
2022/03/30 00:30:19;;;;;;;22.17;7.80;;;;;;;12.44;49.56;98287.69;5021057;28;20209;-71
2022/03/30 00:32:45;;;;;;;23.50;9.60;;;;;;;12.43;49.56;98301.84;5021562;28;20298;-74
2022/03/30 00:35:11;;;;;;;20.40;8.93;;;;;;;12.45;49.35;98292.00;5020986;28;20331;-72
2022/03/30 00:37:37;;;;;;;18.70;7.65;;;;;;;12.45;49.09;98286.75;5020133;28;20199;-70
2022/03/30 00:40:05;;;;;;;20.58;9.07;;;;;;;12.46;48.96;98292.84;5020257;28;20507;-71
2022/03/30 00:42:31;;;;;;;16.85;7.43;;;;;;;12.49;48.75;98284.66;5020308;28;20481;-72
2022/03/30 00:44:57;;;;;;;18.10;7.20;;;;;;;12.52;48.59;98292.25;5021664;28;20664;-70
2022/03/30 00:47:25;;;;;;;17.00;8.70;;;;;;;12.54;48.44;98291.13;5021010;28;20231;-70
2022/03/30 00:49:51;;;;;;;18.83;8.38;;;;;;;12.58;48.55;98289.91;5021169;28;20571;-72
2022/03/30 00:52:18;;;;;;;18.00;8.00;;;;;;;12.60;48.49;98284.47;5021293;28;20206;-70
2022/03/30 00:54:48;;;;;;;24.38;8.88;;;;;;;12.61;48.49;98281.72;5021176;28;20340;-70
2022/03/30 00:57:16;;;;;;;13.25;8.45;;;;;;;12.63;48.28;98285.00;5021357;28;20217;-71
2022/03/30 00:59:42;;;;;;;15.07;8.02;;;;;;;12.64;48.33;98285.84;5020956;28;20544;-74
2022/03/30 01:02:09;;;;;;;20.23;9.00;;;;;;;12.68;48.50;98281.94;5019732;28;21004;-73
2022/03/30 01:04:35;;;;;;;13.68;7.00;;;;;;;12.70;48.41;98279.19;5019584;28;20257;-71
2022/03/30 01:07:01;;;;;;;17.08;8.05;;;;;;;12.72;48.50;98274.56;5020104;28;20404;-73
2022/03/30 01:09:27;;;;;;;17.77;7.90;;;;;;;12.71;48.71;98271.13;5019932;28;20271;-72
2022/03/30 01:11:53;;;;;;;17.60;7.37;;;;;;;12.70;49.19;98266.00;5019634;28;20599;-72
2022/03/30 01:14:19;;;;;;;24.98;8.35;;;;;;;12.70;49.39;98269.47;5019538;28;20912;-72
2022/03/30 01:16:45;;;;;;;31.88;11.05;;;;;;;12.68;49.86;98265.31;5018728;28;20202;-72
2022/03/30 01:19:11;;;;;;;24.60;9.17;;;;;;;12.63;50.52;98268.38;5019950;28;20271;-71
2022/03/30 01:21:38;;;;;;;18.48;7.55;;;;;;;12.57;51.03;98263.69;5019444;28;20210;-73
2022/03/30 01:24:05;;;;;;;14.00;7.20;;;;;;;12.54;51.99;98262.16;5019149;28;20276;-71
2022/03/30 01:26:31;;;;;;;20.30;7.53;;;;;;;12.49;52.40;98261.75;5018832;28;20222;-73
2022/03/30 01:28:57;;;;;;;17.73;7.30;;;;;;;12.45;53.08;98267.44;5017920;28;20217;-73
2022/03/30 01:34:07;;;;;;;22.38;9.43;;;;;;;12.38;54.67;98264.56;5018699;28;20233;-73
2022/03/30 01:36:35;;;;;;;11.98;7.45;;;;;;;12.32;55.41;98254.59;5018697;28;20206;-73
2022/03/30 01:39:02;;;;;;;13.45;7.43;;;;;;;12.27;55.98;98254.19;5017664;28;20198;-74
2022/03/30 01:41:29;;;;;;;15.88;7.80;;;;;;;12.21;56.20;98252.97;5016908;28;20214;-71
2022/03/30 01:43:56;;;;;;;21.27;8.77;;;;;;;12.16;56.94;98248.13;5018709;28;20226;-71
2022/03/30 01:46:22;;;;;;;14.60;8.75;;;;;;;12.10;57.26;98245.22;5018820;28;20252;-73
2022/03/30 01:48:48;;;;;;;19.50;8.20;;;;;;;12.08;57.63;98255.06;5018431;28;20699;-72
2022/03/30 01:51:13;;;;;;;22.80;9.03;;;;;;;12.02;58.31;98251.19;5019751;28;20206;-73
2022/03/30 01:53:39;;;;;;;14.30;8.80;;;;;;;11.95;58.92;98243.00;5018753;28;20680;-72
2022/03/30 01:56:04;;;;;;;17.37;9.77;;;;;;;11.89;58.96;98240.13;5019494;28;20499;-71
2022/03/30 01:58:30;;;;;;;14.00;9.07;;;;;;;11.89;59.23;98240.13;5016796;28;20214;-73
2022/03/30 02:00:57;;;;;;;16.47;7.67;;;;;;;11.88;59.29;98235.81;5018706;28;20450;-73
2022/03/30 02:03:23;;;;;;;13.68;8.13;;;;;;;11.89;59.44;98242.75;5017736;28;20568;-70
2022/03/30 02:05:48;;;;;;;21.87;8.17;;;;;;;11.87;59.27;98237.63;5018578;28;20236;-74
2022/03/30 02:08:13;;;;;;;16.90;10.33;;;;;;;11.89;59.45;98246.22;5017893;28;20276;-71
2022/03/30 02:10:39;;;;;;;18.93;8.37;;;;;;;11.89;59.83;98245.38;5019197;28;20259;-75
2022/03/30 02:13:05;;;;;;;26.03;9.53;;;;;;;11.87;60.31;98258.66;5018069;28;20496;-71
2022/03/30 02:15:31;;;;;;;16.57;9.23;;;;;;;11.84;60.62;98251.03;5017937;28;20241;-70
2022/03/30 02:17:57;;;;;;;16.77;8.20;;;;;;;11.77;61.19;98260.44;5017849;28;20209;-71
2022/03/30 02:20:22;;;;;;;19.15;8.15;;;;;;;11.73;61.83;98264.31;5017945;28;20548;-72
2022/03/30 02:22:48;;;;;;;17.60;7.80;;;;;;;11.66;62.23;98264.00;5016879;28;20524;-73
2022/03/30 02:25:13;;;;;;;20.43;8.90;;;;;;;11.63;62.64;98264.28;5018321;28;20710;-73
2022/03/30 02:27:40;;;;;;;18.07;8.53;;;;;;;11.62;63.00;98267.09;5017992;28;20569;-74
2022/03/30 02:30:07;;;;;;;15.68;8.77;;;;;;;11.60;63.88;98259.31;5019861;28;20267;-73
2022/03/30 02:32:32;;;;;;;14.35;9.25;;;;;;;11.60;66.30;98261.94;5021588;28;20476;-72
2022/03/30 02:34:58;;;;;;;24.23;10.60;;;;;;;11.55;66.91;98263.31;5021042;28;20229;-71
2022/03/30 02:37:23;;;;;;;11.70;9.50;;;;;;;11.51;66.88;98257.53;5020297;28;20202;-73
2022/03/30 02:39:49;;;;;;;16.83;9.50;;;;;;;11.50;67.31;98247.94;5021146;28;20233;-71
2022/03/30 02:42:14;;;;;;;17.17;10.90;;;;;;;11.44;68.32;98223.03;5020685;28;20226;-70
2022/03/30 02:44:40;;;;;;;18.37;8.83;;;;;;;11.30;68.76;98228.69;5020423;28;20592;-69
2022/03/30 02:47:06;;;;;;;15.10;8.47;;;;;;;11.20;68.96;98212.06;5019377;28;20234;-71
2022/03/30 02:49:32;;;;;;;14.40;8.85;;;;;;;11.11;69.95;98197.13;5020392;28;20490;-69
2022/03/30 02:51:58;;;;;;;20.93;10.93;;;;;;;10.98;71.48;98194.75;5020501;28;20287;-72
2022/03/30 02:54:24;;;;;;;15.63;8.73;;;;;;;10.88;71.70;98188.63;5019979;28;21050;-72
2022/03/30 02:56:50;;;;;;;25.27;9.75;;;;;;;10.83;72.01;98189.06;5021572;28;20206;-71
2022/03/30 02:59:15;;;;;;;15.97;8.13;;;;;;;10.77;73.04;98185.13;5020567;28;20212;-69
2022/03/30 03:01:41;;;;;;;17.20;9.73;;;;;;;10.69;73.40;98182.34;5019507;28;20897;-70
2022/03/30 03:04:06;;;;;;;16.10;10.40;;;;;;;10.64;73.49;98195.06;5020737;28;20221;-71
2022/03/30 03:06:32;;;;;;;15.43;8.60;;;;;;;10.58;74.68;98195.59;5021490;28;20225;-71
2022/03/30 03:08:57;;;;;;;17.53;8.90;;;;;;;10.49;75.59;98209.50;5020963;28;20572;-74
2022/03/30 03:11:24;;;;;;;15.80;8.90;;;;;;;10.38;76.27;98221.75;5021856;28;20213;-72
2022/03/30 03:13:50;;;;;;;25.10;9.55;;;;;;;10.32;76.99;98224.09;5021446;28;20677;-73
2022/03/30 03:16:16;;;;;;;13.20;10.20;;;;;;;10.29;77.41;98219.91;5020442;28;20206;-74
2022/03/30 03:18:42;;;;;;;20.48;9.82;;;;;;;10.24;77.41;98223.88;5020660;28;20313;-73
2022/03/30 03:21:08;;;;;;;19.80;10.90;;;;;;;10.21;77.86;98232.81;5019848;28;21524;-73
2022/03/30 03:23:33;;;;;;;21.53;10.10;;;;;;;10.20;77.99;98234.59;5019892;28;20666;-71
2022/03/30 03:25:58;;;;;;;25.93;10.77;;;;;;;10.19;78.25;98245.25;5019534;28;20809;-71
2022/03/30 03:28:24;;;;;;;18.53;10.43;;;;;;;10.22;78.43;98244.16;5019682;28;20225;-72
2022/03/30 03:30:49;;;;;;;18.40;10.17;;;;;;;10.21;78.68;98248.56;5020304;28;20202;-70
2022/03/30 03:33:15;;;;;;;21.90;12.27;;;;;;;10.27;79.59;98252.47;5018484;28;20765;-71
2022/03/30 03:35:40;;;;;;;17.27;10.50;;;;;;;10.27;79.84;98240.22;5019691;28;20283;-72
2022/03/30 03:38:08;;;;;;;22.17;11.07;;;;;;;10.29;79.68;98222.53;5018673;28;20626;-71
2022/03/30 03:40:35;;;;;;;29.98;17.00;;;;;;;10.34;79.11;98216.88;5018766;28;20647;-71
2022/03/30 03:43:01;;;;;;;21.10;13.20;;;;;;;10.37;78.80;98211.41;5018294;28;20240;-74
2022/03/30 03:45:27;;;;;;;17.65;9.35;;;;;;;10.36;78.76;98205.28;5019770;28;20226;-74
2022/03/30 03:47:52;;;;;;;17.03;9.57;;;;;;;10.35;78.50;98205.44;5018951;28;20236;-70
2022/03/30 03:50:18;;;;;;;13.30;9.87;;;;;;;10.38;78.33;98213.06;5019652;28;20453;-70
2022/03/30 03:52:43;;;;;;;16.43;9.90;;;;;;;10.43;78.12;98210.03;5019340;28;20598;-73
2022/03/30 03:55:10;;;;;;;16.67;8.50;;;;;;;10.43;78.09;98195.13;5020125;28;20587;-70
2022/03/30 03:57:41;;;;;;;19.02;9.48;;;;;;;10.41;77.96;98203.13;5020546;28;20782;-73
2022/03/30 04:00:09;;;;;;;16.45;10.23;;;;;;;10.41;78.01;98200.50;5023442;28;20206;-72
2022/03/30 04:02:39;;;;;;;18.58;10.23;;;;;;;10.41;77.66;98200.50;5042926;28;20225;-69
2022/03/30 04:05:05;;;;;;;15.63;10.27;;;;;;;10.37;78.14;98196.47;5043515;28;20245;-69
2022/03/30 04:07:32;;;;;;;13.75;9.52;;;;;;;10.32;78.56;98195.22;5043932;28;20473;-70
2022/03/30 04:09:59;;;;;;;23.25;8.57;;;;;;;10.22;79.06;98187.25;5035767;28;20206;-73
2022/03/30 04:12:24;;;;;;;14.18;9.02;;;;;;;10.17;79.31;98186.81;5022645;28;20249;-71
2022/03/30 04:14:49;;;;;;;23.70;10.63;;;;;;;10.13;79.49;98186.25;5026054;28;20786;-73
2022/03/30 04:17:15;;;;;;;23.90;11.67;;;;;;;10.15;79.35;98184.31;5024804;28;20264;-71
2022/03/30 04:19:40;;;;;;;18.50;11.50;;;;;;;10.16;79.11;98182.53;5025191;28;20282;-70
2022/03/30 04:22:06;;;;;;;14.53;9.50;;;;;;;10.18;79.26;98180.59;5025082;28;20758;-73
2022/03/30 04:24:31;;;;;;;16.37;9.93;;;;;;;10.21;79.11;98180.34;5022489;28;20233;-70
2022/03/30 04:26:56;;;;;;;17.30;11.10;;;;;;;10.23;78.61;98173.16;5022777;28;20254;-72
2022/03/30 04:29:22;;;;;;;16.57;10.90;;;;;;;10.25;78.96;98170.41;5023732;28;20308;-71
2022/03/30 04:31:49;;;;;;;20.20;11.50;;;;;;;10.27;78.90;98171.97;5023903;28;20492;-73
2022/03/30 04:34:15;;;;;;;19.45;11.95;;;;;;;10.25;79.48;98166.00;5025886;28;20325;-74
2022/03/30 04:36:40;;;;;;;15.83;10.00;;;;;;;10.19;80.05;98163.91;5025882;28;20684;-73
2022/03/30 04:39:06;;;;;;;16.90;11.97;;;;;;;10.10;80.61;98156.78;5024970;28;20452;-73
2022/03/30 04:41:31;;;;;;;18.20;11.70;;;;;;;10.02;81.28;98153.97;5024222;28;20213;-73
2022/03/30 04:43:57;;;;;;;17.53;10.60;;;;;;;9.96;81.88;98153.56;5023934;28;20770;-74
2022/03/30 04:46:22;;;;;;;24.53;11.23;;;;;;;9.93;82.28;98151.19;5025115;28;20217;-70
2022/03/30 04:48:47;;;;;;;19.87;10.90;;;;;;;9.92;82.11;98154.78;5024610;28;20241;-70
2022/03/30 04:51:13;;;;;;;21.17;11.83;;;;;;;9.94;81.76;98149.41;5024667;28;20598;-72
2022/03/30 04:53:38;;;;;;;27.00;17.20;;;;;;;9.96;81.80;98145.69;5024667;28;20222;-72
2022/03/30 04:56:05;;;;;;;20.67;12.70;;;;;;;9.98;81.76;98146.38;5021110;28;20305;-73
2022/03/30 04:58:31;;;;;;;21.30;12.52;;;;;;;9.97;81.75;98141.28;5022602;28;20238;-71
2022/03/30 05:00:56;;;;;;;16.10;10.83;;;;;;;9.96;81.97;98140.44;5024787;28;20664;-73
2022/03/30 05:03:22;;;;;;;22.97;11.53;;;;;;;10.00;81.82;98138.38;5023023;28;20242;-72
2022/03/30 05:05:47;;;;;;;27.27;12.83;;;;;;;9.99;81.77;98134.13;5023032;28;20675;-72
2022/03/30 05:08:12;;;;;;;18.00;11.60;;;;;;;10.01;81.82;98142.66;5023391;28;20730;-74
2022/03/30 05:10:38;;;;;;;18.97;12.20;;;;;;;10.02;81.83;98141.72;5021150;28;20254;-71
2022/03/30 05:13:04;;;;;;;17.70;11.77;;;;;;;10.04;82.05;98134.53;5022920;28;20238;-74
2022/03/30 05:15:30;;;;;;;17.98;12.35;;;;;;;10.06;81.75;98135.25;5024364;28;20430;-74
2022/03/30 05:17:56;;;;;;;19.77;12.70;;;;;;;10.09;81.77;98137.59;5021395;28;20689;-72
2022/03/30 05:20:22;;;;;;;19.45;13.23;;;;;;;10.13;81.44;98130.31;5023586;28;20459;-71
2022/03/30 05:22:47;;;;;;;16.13;11.60;;;;;;;10.16;81.36;98122.19;5023362;28;20414;-73
2022/03/30 05:25:19;;;;;;;23.13;12.97;;;;;;;10.20;81.33;98123.56;5022449;28;20690;-74
2022/03/30 05:27:45;;;;;;;17.50;11.77;;;;;;;10.23;81.36;98125.91;5021268;28;20586;-74
2022/03/30 05:30:12;;;;;;;19.20;12.88;;;;;;;10.23;81.48;98127.72;5023560;28;20205;-72
2022/03/30 05:32:38;;;;;;;23.20;14.80;;;;;;;10.24;82.11;98124.97;5021963;28;20831;-71
2022/03/30 05:35:04;;;;;;;24.03;13.83;;;;;;;10.22;82.46;98132.13;5022569;28;20514;-74
2022/03/30 05:37:31;;;;;;;21.35;13.55;;;;;;;10.18;82.25;98122.88;5021003;28;20229;-74
2022/03/30 05:39:57;;;;;;;19.77;13.30;;;;;;;10.16;82.25;98128.25;5021018;28;20214;-73
2022/03/30 05:42:22;;;;;;;23.75;12.23;;;;;;;10.16;82.35;98127.44;5021230;28;20272;-74
2022/03/30 05:44:49;;;;;;;21.20;12.43;;;;;;;10.15;82.26;98123.97;5022708;28;20229;-73
2022/03/30 05:47:15;;;;;;;25.85;13.18;;;;;;;10.15;82.09;98123.97;5022992;28;20221;-74
2022/03/30 05:49:40;;;;;;;21.87;13.40;;;;;;;10.15;82.14;98120.50;5022018;28;20296;-74
2022/03/30 05:52:08;;;;;;;18.97;11.53;;;;;;;10.10;82.51;98109.56;5021413;28;20240;-71
2022/03/30 05:54:34;;;;;;;18.05;12.77;;;;;;;10.09;82.79;98107.91;5019364;28;20472;-74
2022/03/30 05:57:02;;;;;;;24.13;11.00;;;;;;;10.07;82.96;98120.31;5021454;28;20207;-74
2022/03/30 05:59:34;;;;;;;17.65;12.38;;;;;;;10.05;82.90;98115.22;5022467;28;20217;-73
2022/03/30 06:02:00;;;;;;;20.45;13.45;;;;;;;10.08;82.81;98116.75;5020591;28;20473;-73
2022/03/30 06:04:26;;;;;;;20.95;12.15;;;;;;;10.10;82.75;98105.16;5020113;28;20230;-73
2022/03/30 06:06:51;;;;;;;21.57;11.30;;;;;;;10.13;82.55;98110.16;5020803;28;20261;-75
2022/03/30 06:09:17;;;;;;;21.07;12.07;;;;;;;10.16;82.32;98116.94;5020376;28;20460;-71
2022/03/30 06:11:43;;;;;;;22.23;12.20;;;;;;;10.16;82.41;98106.44;5021925;28;20292;-71
2022/03/30 06:14:09;;;;;;;19.45;12.52;;;;;;;10.17;82.23;98113.34;5021571;28;21164;-72
2022/03/30 06:16:35;;;;;;;20.90;13.33;;;;;;;10.20;82.22;98113.06;5021997;28;20704;-74
2022/03/30 06:19:00;;;;;;;25.58;11.50;;;;;;;10.23;81.99;98109.34;5021196;28;20213;-74
2022/03/30 06:21:30;;;;;;;18.73;12.20;;;;;;;10.25;82.08;98108.25;5021709;28;20473;-74
2022/03/30 06:23:58;;;;;;;20.02;12.55;;;;;;;10.26;81.89;98109.94;5022186;28;20260;-73
2022/03/30 06:26:24;;;;;;;26.05;13.80;;;;;;;10.28;81.75;98104.56;5020935;28;20252;-71
2022/03/30 06:28:50;;;;;;;17.37;11.97;;;;;;;10.29;81.98;98108.84;5020310;28;20696;-74
2022/03/30 06:31:19;;;;;;;20.10;11.40;;;;;;;10.29;81.81;98109.69;5019239;28;20484;-72
2022/03/30 06:33:46;;;;;;;13.70;10.85;;;;;;;10.31;82.03;98101.69;5020574;28;20519;-73
2022/03/30 06:36:12;;;;;;;17.40;11.02;;;;;;;10.33;81.55;98105.00;5020772;28;20205;-73
2022/03/30 06:38:38;;;;;;;15.13;9.98;;;;;;;10.34;81.67;98112.75;5020373;28;20542;-75
2022/03/30 06:41:04;;;;;;;14.33;8.00;;;;;;;10.36;81.37;98113.44;5020579;28;20205;-73
2022/03/30 06:43:29;;;;;;;15.18;8.77;;;;;;;10.36;81.36;98112.59;5019966;28;20260;-74
2022/03/30 06:45:55;;;;;;;14.07;9.40;;;;;;;10.37;81.25;98111.66;5020808;28;20209;-73
2022/03/30 06:48:21;;;;;;;18.57;9.20;;;;;;;10.37;80.95;98116.91;5020145;28;20246;-76
2022/03/30 06:50:48;;;;;;;16.10;8.43;;;;;;;10.39;81.11;98120.22;5020177;28;20289;-75
2022/03/30 06:53:13;;;;;;;12.50;9.75;;;;;;;10.39;81.10;98120.22;5021689;28;20788;-73
2022/03/30 06:55:40;;;;;;;18.70;10.43;;;;;;;10.37;81.05;98112.50;5020418;28;20625;-75
2022/03/30 06:58:06;;;;;;;18.27;11.27;;;;;;;10.39;81.04;98110.53;5022078;28;20213;-74
2022/03/30 07:00:32;;;;;;;14.70;10.18;;;;;;;10.41;80.81;98107.78;5022269;28;20209;-73
2022/03/30 07:02:58;;;;;;;17.23;12.02;;;;;;;10.45;81.50;98105.72;5018570;28;20546;-73
2022/03/30 07:05:23;;;;;;;13.10;10.00;;;;;;;10.44;81.77;98104.06;5019878;28;20233;-75
2022/03/30 07:10:33;;;;;;;13.88;8.57;;;;;;;10.43;81.48;98102.41;5020061;28;20292;-73
2022/03/30 07:13:02;;;;;;;13.40;7.57;;;;;;;10.43;81.70;98099.78;5020231;28;20287;-73
2022/03/30 07:15:28;;;;;;;11.60;7.18;;;;;;;10.43;81.53;98102.41;5020415;28;20257;-75
2022/03/30 07:17:55;;;;;;;8.53;7.20;;;;;;;10.44;81.25;98107.53;5019850;28;20244;-73
2022/03/30 07:20:23;;;;;;;13.52;8.00;;;;;;;10.46;81.10;98108.22;5019549;28;20457;-75
2022/03/30 07:22:50;;;;;;;15.73;7.28;;;;;;;10.48;81.14;98098.44;5019534;28;20275;-72
2022/03/30 07:25:17;;;;;;;11.40;6.75;;;;;;;10.54;80.92;98097.06;5020467;28;20641;-75
2022/03/30 07:27:45;;;;;;;13.02;6.85;;;;;;;10.57;80.90;98091.53;5019186;28;20237;-74
2022/03/30 07:30:12;;;;;;;11.90;6.78;;;;;;;10.60;80.58;98086.00;5017691;28;20396;-73
2022/03/30 07:32:39;;;;;;;12.23;8.57;;;;;;;10.65;80.56;98088.25;5018867;28;20209;-74
2022/03/30 07:35:10;;;;;;;14.18;6.90;;;;;;;10.69;80.36;98090.44;5020201;28;20320;-74
2022/03/30 07:37:37;;;;;;;11.23;6.75;;;;;;;10.72;80.04;98094.59;5019865;28;20210;-73
2022/03/30 07:40:04;;;;;;;11.15;7.32;;;;;;;10.74;79.93;98090.03;5019872;28;20209;-75
2022/03/30 07:42:30;;;;;;;12.63;9.73;;;;;;;10.76;79.94;98091.56;5019272;28;20206;-75
2022/03/30 07:44:55;;;;;;;11.57;7.70;;;;;;;10.77;79.76;98092.38;5018454;28;20683;-73
2022/03/30 07:47:21;;;;;;;9.80;6.70;;;;;;;10.79;79.82;98095.72;5021089;28;20222;-71
2022/03/30 07:49:47;;;;;;;14.03;7.53;;;;;;;10.81;79.80;98092.00;5021546;28;20283;-75
2022/03/30 07:52:14;;;;;;;15.52;8.10;;;;;;;10.86;79.64;98096.84;5022535;28;20813;-74
2022/03/30 07:54:41;;;;;;;13.63;8.05;;;;;;;10.89;79.66;98098.38;5022467;28;20756;-73
2022/03/30 07:57:06;;;;;;;13.63;7.70;;;;;;;10.91;79.48;98099.91;5022136;28;20206;-71
2022/03/30 07:59:32;;;;;;;10.00;7.23;;;;;;;10.95;79.57;98096.00;5022269;28;20556;-74
2022/03/30 08:01:58;;;;;;;12.27;8.60;;;;;;;10.99;79.59;98105.28;5022166;28;20484;-73
2022/03/30 08:04:24;;;;;;;10.50;7.70;;;;;;;11.03;79.68;98095.34;5022130;28;21014;-74
2022/03/30 08:06:50;;;;;;;11.18;7.13;;;;;;;11.07;79.27;98094.94;5023052;28;20237;-73
2022/03/30 08:09:16;;;;;;;21.13;8.43;;;;;;;11.11;79.13;98098.09;5036996;28;20218;-75
2022/03/30 08:11:41;;;;;;;20.47;7.30;;;;;;;11.15;78.95;98099.50;5022241;28;20276;-74
2022/03/30 08:14:07;;;;;;;16.43;7.20;;;;;;;11.22;78.67;98095.34;5020945;28;20715;-74
2022/03/30 08:16:33;;;;;;;10.00;7.27;;;;;;;11.29;78.47;98104.31;5022191;28;20224;-74
2022/03/30 08:18:59;;;;;;;12.50;7.75;;;;;;;11.38;78.27;98097.41;5022082;28;20209;-75
2022/03/30 08:24:08;;;;;;;11.40;6.05;;;;;;;11.47;77.73;98100.97;5022708;28;20471;-75
2022/03/30 08:26:34;;;;;;;10.77;6.20;;;;;;;11.50;77.32;98101.56;5021944;28;20210;-72
2022/03/30 08:28:59;;;;;;;15.53;7.53;;;;;;;11.48;77.15;98097.41;5021227;28;20252;-73
2022/03/30 08:31:25;;;;;;;17.33;9.30;;;;;;;11.48;77.25;98092.97;5022514;28;20500;-74
2022/03/30 08:33:51;;;;;;;12.30;7.23;;;;;;;11.50;77.22;98096.28;5021940;28;20754;-75
2022/03/30 08:36:16;;;;;;;13.30;8.50;;;;;;;11.52;77.05;98093.50;5021199;28;20654;-72
2022/03/30 08:38:42;;;;;;;12.60;6.83;;;;;;;11.54;77.21;98096.00;5021677;28;20217;-73
2022/03/30 08:41:08;;;;;;;13.93;8.00;;;;;;;11.60;76.91;98090.19;5020974;28;20578;-72
2022/03/30 08:43:34;;;;;;;15.23;8.23;;;;;;;11.64;77.05;98087.13;5020872;28;20531;-75
2022/03/30 08:46:02;;;;;;;17.00;9.43;;;;;;;11.70;77.02;98089.19;5021740;28;20210;-75
2022/03/30 08:48:28;;;;;;;22.13;9.43;;;;;;;11.76;76.68;98094.84;5021394;28;20242;-71
2022/03/30 08:50:54;;;;;;;17.67;9.10;;;;;;;11.80;76.13;98088.31;5019142;28;20434;-76
2022/03/30 08:53:19;;;;;;;12.53;7.90;;;;;;;11.82;76.08;98086.38;5021613;28;20453;-73
2022/03/30 08:55:45;;;;;;;9.57;6.70;;;;;;;11.85;75.69;98094.00;5022513;28;20205;-75
2022/03/30 08:58:12;;;;;;;15.50;8.07;;;;;;;11.88;75.68;98089.31;5020173;28;20679;-72
2022/03/30 09:00:37;;;;;;;19.17;10.32;;;;;;;11.97;75.46;98090.25;5021834;28;20491;-72
2022/03/30 09:03:04;;;;;;;16.33;10.00;;;;;;;12.09;75.28;98085.63;5020240;28;20477;-73
2022/03/30 09:05:31;;;;;;;14.18;8.80;;;;;;;12.12;74.79;98095.88;5022200;28;20253;-72
2022/03/30 09:08:20;;;;;;;17.90;9.63;;;;;;;12.17;74.62;98093.63;5022454;28;20228;-75
2022/03/30 09:10:48;;;;;;;14.48;8.73;;;;;;;12.14;74.44;98093.94;5021371;28;20587;-75
2022/03/30 09:13:17;;;;;;;14.48;8.55;;;;;;;12.15;74.60;98091.16;5021685;28;20222;-74
2022/03/30 09:15:44;;;;;;;18.65;8.45;;;;;;;12.20;74.46;98092.53;5022138;28;20214;-73
2022/03/30 09:18:11;;;;;;;15.68;9.10;;;;;;;12.22;74.35;98095.84;5021134;28;20478;-73
2022/03/30 09:20:42;;;;;;;12.88;9.07;;;;;;;12.25;74.39;98085.00;5020150;28;20214;-75
2022/03/30 09:23:09;;;;;;;14.40;8.52;;;;;;;12.26;74.15;98082.25;5021232;28;20218;-74
2022/03/30 09:25:35;;;;;;;17.15;8.43;;;;;;;12.26;74.27;98081.41;5020636;28;20225;-73
2022/03/30 09:28:02;;;;;;;13.03;8.40;;;;;;;12.31;74.46;98087.06;5020617;28;20490;-75
2022/03/30 09:30:29;;;;;;;16.55;10.30;;;;;;;12.38;74.19;98086.34;5018977;28;20480;-74
2022/03/30 09:32:57;;;;;;;13.40;10.02;;;;;;;12.40;74.08;98086.19;5019571;28;20504;-73
2022/03/30 09:35:32;;;;;;;20.48;8.93;;;;;;;12.43;74.08;98085.91;5020250;28;20226;-73
2022/03/30 09:37:59;;;;;;;13.65;9.10;;;;;;;12.46;74.01;98085.59;5020232;28;20289;-72
2022/03/30 09:40:35;;;;;;;19.02;10.20;;;;;;;12.59;73.80;98083.47;5019901;28;20210;-75
2022/03/30 09:43:22;;;;;;;11.68;7.40;;;;;;;12.69;73.48;98077.28;5019456;28;20299;-74
2022/03/30 09:45:50;;;;;;;11.32;9.52;;;;;;;12.79;73.25;98081.50;5018843;28;20210;-73
2022/03/30 09:48:20;;;;;;;13.48;9.10;;;;;;;12.89;72.66;98067.47;5019226;28;20339;-74
2022/03/30 09:50:49;;;;;;;11.32;8.02;;;;;;;12.97;72.34;98070.19;5019123;28;20583;-73
2022/03/30 09:53:16;;;;;;;14.38;9.23;;;;;;;13.12;71.98;98059.91;5019205;28;20199;-75
2022/03/30 09:56:04;;;;;;;12.35;8.18;;;;;;;13.29;71.52;98059.13;5018637;28;20213;-73
2022/03/30 09:58:35;;;;;;;15.38;9.10;;;;;;;13.44;71.06;98059.38;5018754;28;20214;-74
2022/03/30 10:01:08;;;;;;;12.85;9.23;;;;;;;13.52;70.40;98058.63;5018865;28;20853;-75
2022/03/30 10:03:42;;;;;;;15.13;9.30;;;;;;;13.59;70.31;98052.56;5018469;28;20225;-73
2022/03/30 10:06:11;;;;;;;15.13;8.95;;;;;;;13.50;69.73;98051.69;5017573;28;20230;-72
2022/03/30 10:08:40;;;;;;;15.10;9.32;;;;;;;13.40;69.99;98045.69;5017787;28;20241;-74
2022/03/30 10:11:06;;;;;;;20.25;9.95;;;;;;;13.39;70.14;98038.72;5018794;28;20330;-73
2022/03/30 10:13:32;;;;;;;15.13;10.35;;;;;;;13.41;69.88;98041.22;5017743;28;20253;-74
2022/03/30 10:15:58;;;;;;;17.47;9.33;;;;;;;13.42;69.52;98033.19;5017424;28;20206;-74
2022/03/30 10:18:24;;;;;;;15.23;9.20;;;;;;;13.46;69.46;98031.06;5017781;28;20206;-73
2022/03/30 10:21:05;;;;;;;10.75;8.27;;;;;;;13.55;69.27;98024.84;5017633;28;20240;-74
2022/03/30 10:23:53;;;;;;;14.25;11.43;;;;;;;13.59;68.84;98015.63;5017547;28;20301;-74
2022/03/30 10:26:34;;;;;;;17.30;9.38;;;;;;;13.50;69.04;98024.47;5018059;28;20225;-72
2022/03/30 10:29:05;;;;;;;13.75;9.48;;;;;;;13.45;68.93;98005.66;5018411;28;20221;-74
2022/03/30 10:31:31;;;;;;;15.40;8.57;;;;;;;13.39;69.04;98007.09;5018455;28;20217;-75
2022/03/30 10:33:57;;;;;;;17.23;9.45;;;;;;;13.37;69.21;97997.69;5019664;28;20257;-75
2022/03/30 10:36:28;;;;;;;22.37;9.93;;;;;;;13.36;69.39;97988.94;5022258;28;20329;-74
2022/03/30 10:39:27;;;;;;;14.98;8.73;;;;;;;13.38;69.51;97992.25;5023341;28;20560;-74
2022/03/30 10:41:55;;;;;;;18.83;8.95;;;;;;;13.40;69.27;97979.75;4976379;28;20306;-75
2022/03/30 10:45:01;;;;;;;15.20;9.52;;;;;;;13.42;69.38;97979.56;4975139;28;20236;-73
2022/03/30 10:47:27;;;;;;;13.60;8.35;;;;;;;13.43;69.41;97982.06;4993543;28;20243;-73
2022/03/30 10:49:55;;;;;;;14.57;9.45;;;;;;;13.45;68.85;97980.13;4995060;28;20251;-73
2022/03/30 10:52:26;;;;;;;13.15;9.65;;;;;;;13.41;68.73;97985.84;4983715;28;20231;-74
2022/03/30 10:55:14;;;;;;;18.60;8.95;;;;;;;13.39;69.01;97979.88;4989635;28;20257;-74
2022/03/30 10:57:57;;;;;;;20.25;9.65;;;;;;;13.42;68.82;97980.44;4975461;28;20355;-71
2022/03/30 11:00:29;;;;;;;13.50;8.50;;;;;;;13.39;69.18;97971.97;4975455;28;20210;-71
2022/03/30 11:03:17;;;;;;;21.17;10.60;;;;;;;13.41;69.42;97967.38;4973461;28;20511;-74
2022/03/30 11:05:59;;;;;;;15.07;9.80;;;;;;;13.37;69.44;97971.31;4975403;28;20678;-73
2022/03/30 11:08:45;;;;;;;17.65;9.05;;;;;;;13.30;69.47;97957.09;4975212;28;20279;-71
2022/03/30 11:11:40;;;;;;;17.10;9.10;;;;;;;13.27;69.36;97966.16;4964049;28;20239;-73
2022/03/30 11:14:25;;;;;;;11.52;8.40;;;;;;;13.27;69.50;97960.88;4974804;28;20494;-71
2022/03/30 11:16:55;;;;;;;12.10;8.60;;;;;;;13.29;69.40;97961.56;4974700;28;20233;-70
2022/03/30 11:19:28;;;;;;;17.05;9.65;;;;;;;13.30;69.55;97950.00;4975132;28;20219;-73
2022/03/30 11:22:22;;;;;;;18.30;10.35;;;;;;;13.34;69.92;97946.09;4974153;28;20380;-71
2022/03/30 11:25:06;;;;;;;18.40;10.00;;;;;;;13.40;70.36;97945.47;4974708;28;20601;-75
2022/03/30 11:27:32;;;;;;;13.02;9.50;;;;;;;13.40;70.43;97940.19;4974835;28;20435;-73
2022/03/30 11:30:00;;;;;;;13.17;8.40;;;;;;;13.40;70.57;97942.81;4974915;28;20575;-74
2022/03/30 11:32:25;;;;;;;13.55;8.85;;;;;;;13.38;70.52;97938.69;4974818;28;20478;-72